createdAt,value
2022-08-17T00:00:42.861Z,3.42
2022-08-17T00:05:55.091Z,4.13
2022-08-17T00:11:00.560Z,3.10
2022-08-17T00:16:09.327Z,3.25
2022-08-17T00:21:12.292Z,3.33
2022-08-17T00:26:16.685Z,3.33
2022-08-17T00:31:39.137Z,3.20
2022-08-17T00:36:41.614Z,3.38
2022-08-17T00:41:44.810Z,3.22
2022-08-17T00:46:48.445Z,3.45
2022-08-17T00:51:52.966Z,3.72
2022-08-17T00:57:09.449Z,3.65
2022-08-17T01:02:14.817Z,3.90
2022-08-17T01:07:18.411Z,3.58
2022-08-17T01:12:20.906Z,3.13
2022-08-17T01:17:23.444Z,3.60
2022-08-17T01:22:26.763Z,3.05
2022-08-17T01:27:30.997Z,3.25
2022-08-17T01:32:33.953Z,3.00
2022-08-17T01:37:40.131Z,3.40
2022-08-17T01:42:57.921Z,3.03
2022-08-17T01:48:01.320Z,3.13
2022-08-17T01:53:07.225Z,3.03
2022-08-17T01:58:10.401Z,2.33
2022-08-17T02:03:13.954Z,3.33
2022-08-17T02:08:19.809Z,3.22
2022-08-17T02:13:23.145Z,2.88
2022-08-17T02:18:26.351Z,3.33
2022-08-17T02:23:33.014Z,3.22
2022-08-17T02:28:35.952Z,2.83
2022-08-17T02:33:42.828Z,3.22
2022-08-17T02:38:46.088Z,3.07
2022-08-17T02:43:48.514Z,3.03
2022-08-17T02:48:50.937Z,3.00
2022-08-17T02:54:38.882Z,3.20
2022-08-17T02:59:16.050Z,3.25
2022-08-17T03:04:18.690Z,2.90
2022-08-17T03:09:21.192Z,3.42
2022-08-17T03:14:24.454Z,2.88
2022-08-17T03:19:28.780Z,3.38
2022-08-17T03:24:31.210Z,2.78
2022-08-17T03:29:33.587Z,3.40
2022-08-17T03:34:35.963Z,2.83
2022-08-17T03:39:38.763Z,3.45
2022-08-17T03:44:41.210Z,3.03
2022-08-17T03:50:01.959Z,3.90
2022-08-17T03:55:36.815Z,3.70
2022-08-17T04:00:45.973Z,3.75
2022-08-17T04:05:48.382Z,2.83
2022-08-17T04:10:51.022Z,2.97
2022-08-17T04:15:54.206Z,3.05
2022-08-17T04:20:56.720Z,3.13
2022-08-17T04:26:01.426Z,3.08
2022-08-17T04:31:05.160Z,2.60
2022-08-17T04:36:09.460Z,3.15
2022-08-17T04:41:31.931Z,3.35
2022-08-17T04:46:36.742Z,3.60
2022-08-17T04:51:56.318Z,3.38
2022-08-17T04:56:59.273Z,3.90
2022-08-17T05:02:01.700Z,3.55
2022-08-17T05:07:05.050Z,3.20
2022-08-17T05:12:07.764Z,3.60
2022-08-17T05:17:11.207Z,3.30
2022-08-17T05:22:15.258Z,4.07
2022-08-17T05:27:19.043Z,2.83
2022-08-17T05:32:39.285Z,3.45
2022-08-17T05:37:45.585Z,2.80
2022-08-17T05:42:49.887Z,3.10
2022-08-17T05:47:52.420Z,3.20
2022-08-17T05:53:11.957Z,3.08
2022-08-17T05:58:36.290Z,3.10
2022-08-17T06:03:47.450Z,2.90
2022-08-17T06:09:33.821Z,2.72
2022-08-17T06:14:45.478Z,2.30
2022-08-17T06:19:55.111Z,2.13
2022-08-17T06:25:10.163Z,3.42
2022-08-17T06:30:16.768Z,3.28
2022-08-17T06:35:49.417Z,2.35
2022-08-17T06:41:00.102Z,2.38
2022-08-17T06:46:14.074Z,2.60
2022-08-17T06:51:29.338Z,2.30
2022-08-17T06:57:01.192Z,2.63
2022-08-17T07:02:07.693Z,2.65
2022-08-17T07:07:30.456Z,2.22
2022-08-17T07:12:39.047Z,2.75
2022-08-17T07:17:47.217Z,2.53
2022-08-17T07:23:07.431Z,2.30
2022-08-17T07:28:09.835Z,2.53
2022-08-17T07:33:20.540Z,2.60
2022-08-17T07:38:28.282Z,2.80
2022-08-17T07:43:39.995Z,2.00
2022-08-17T07:48:45.489Z,2.40
2022-08-17T07:53:48.386Z,2.90
2022-08-17T07:59:12.633Z,3.20
2022-08-17T08:09:59.799Z,2.58
2022-08-17T08:15:19.378Z,2.40
2022-08-17T08:20:51.698Z,2.40
2022-08-17T08:26:09.767Z,2.40
2022-08-17T08:31:44.929Z,2.08
2022-08-17T08:37:17.793Z,1.90
2022-08-17T08:42:44.538Z,2.92
2022-08-17T08:48:46.220Z,1.83
2022-08-17T08:54:10.286Z,1.85
2022-08-17T08:59:30.705Z,1.75
2022-08-17T09:05:12.464Z,1.55
2022-08-17T09:10:17.923Z,2.35
2022-08-17T09:15:34.145Z,1.88
2022-08-17T09:20:49.930Z,1.80
2022-08-17T09:26:06.921Z,1.77
2022-08-17T09:31:19.652Z,1.90
2022-08-17T09:36:31.947Z,1.80
2022-08-17T09:41:39.128Z,1.80
2022-08-17T09:47:13.510Z,2.20
2022-08-17T09:52:25.651Z,1.67
2022-08-17T09:57:36.608Z,1.60
2022-08-17T10:02:41.041Z,1.50
2022-08-17T10:07:56.536Z,1.50
2022-08-17T10:13:33.520Z,1.95
2022-08-17T10:18:57.066Z,3.07
2022-08-17T10:25:21.386Z,2.13
2022-08-17T10:30:16.239Z,1.60
2022-08-17T10:35:43.221Z,2.22
2022-08-17T10:40:53.621Z,4.90
2022-08-17T10:46:30.009Z,3.15
2022-08-17T10:51:39.649Z,2.05
2022-08-17T10:56:53.147Z,1.60
2022-08-17T11:02:06.779Z,1.50
2022-08-17T11:07:18.524Z,1.98
2022-08-17T11:12:34.039Z,1.65
2022-08-17T11:17:52.745Z,1.55
2022-08-17T11:23:21.531Z,1.42
2022-08-17T11:28:28.807Z,2.22
2022-08-17T11:33:38.059Z,1.58
2022-08-17T11:38:54.511Z,1.70
2022-08-17T11:44:21.185Z,1.88
2022-08-17T11:50:09.123Z,2.10
2022-08-17T11:55:38.509Z,1.70
2022-08-17T12:00:49.983Z,1.77
2022-08-17T12:06:30.512Z,1.90
2022-08-17T12:11:58.683Z,2.00
2022-08-17T12:17:25.898Z,1.77
2022-08-17T12:23:01.579Z,2.35
2022-08-17T12:28:07.423Z,2.17
2022-08-17T12:33:25.467Z,2.20
2022-08-17T12:38:35.439Z,1.60
2022-08-17T12:43:37.902Z,1.67
2022-08-17T12:48:40.275Z,1.80
2022-08-17T12:54:03.044Z,2.08
2022-08-17T12:59:07.647Z,2.00
2022-08-17T13:04:14.707Z,7.97
2022-08-17T13:09:35.235Z,1.57
2022-08-17T13:14:48.491Z,1.92
2022-08-17T13:19:51.800Z,2.40
2022-08-17T13:25:01.374Z,1.75
2022-08-17T13:30:12.276Z,2.10
2022-08-17T13:35:39.832Z,2.50
2022-08-17T13:40:50.768Z,1.98
2022-08-17T13:45:54.096Z,1.80
2022-08-17T13:50:56.383Z,1.80
2022-08-17T13:56:37.104Z,1.63
2022-08-17T14:01:35.366Z,1.73
2022-08-17T14:07:01.854Z,1.83
2022-08-17T14:12:10.142Z,1.80
2022-08-17T14:17:13.275Z,1.88
2022-08-17T14:22:24.537Z,1.80
2022-08-17T14:27:28.764Z,2.00
2022-08-17T14:32:34.801Z,2.15
2022-08-17T14:37:38.133Z,2.10
2022-08-17T14:42:46.244Z,2.15
2022-08-17T14:47:49.092Z,1.42
2022-08-17T14:52:51.842Z,2.00
2022-08-17T14:57:54.240Z,1.98
2022-08-17T15:02:59.416Z,2.17
2022-08-17T15:08:02.952Z,1.60
2022-08-17T15:13:11.174Z,1.90
2022-08-17T15:18:13.578Z,1.85
2022-08-17T15:23:20.837Z,1.90
2022-08-17T15:28:23.695Z,1.73
2022-08-17T15:33:32.222Z,1.77
2022-08-17T15:38:39.908Z,2.08
2022-08-17T15:43:43.270Z,1.95
2022-08-17T15:48:51.183Z,1.80
2022-08-17T15:54:18.870Z,1.85
2022-08-17T15:59:25.045Z,1.88
2022-08-17T16:04:30.729Z,1.88
2022-08-17T16:09:36.483Z,1.80
2022-08-17T16:14:39.231Z,1.57
2022-08-17T16:19:42.500Z,1.50
2022-08-17T16:24:57.352Z,1.60
2022-08-17T16:30:00.350Z,1.43
2022-08-17T16:35:17.844Z,1.90
2022-08-17T16:40:20.730Z,1.80
2022-08-17T16:45:29.566Z,1.98
2022-08-17T16:50:33.224Z,1.70
2022-08-17T16:55:36.304Z,1.80
2022-08-17T17:00:39.658Z,1.60
2022-08-17T17:05:42.182Z,1.98
2022-08-17T17:10:48.856Z,1.60
2022-08-17T17:16:15.198Z,1.80
2022-08-17T17:21:25.285Z,1.50
2022-08-17T17:26:45.879Z,1.90
2022-08-17T17:32:09.511Z,2.20
2022-08-17T17:37:21.125Z,2.03
2022-08-17T17:42:31.900Z,1.95
2022-08-17T17:47:34.954Z,1.88
2022-08-17T17:52:46.924Z,2.15
2022-08-17T17:58:14.011Z,3.00
2022-08-17T18:03:55.371Z,2.70
2022-08-17T18:09:12.664Z,2.58
2022-08-17T18:14:47.920Z,2.55
2022-08-17T18:19:50.339Z,2.42
2022-08-17T18:24:56.914Z,2.60
2022-08-17T18:30:05.887Z,2.87
2022-08-17T18:35:14.831Z,2.75
2022-08-17T18:40:17.403Z,3.10
2022-08-17T18:45:49.223Z,4.47
2022-08-17T18:50:53.753Z,5.50
2022-08-17T18:56:22.225Z,5.22
2022-08-17T19:01:47.193Z,5.00
2022-08-17T19:06:47.202Z,4.20
2022-08-17T19:11:49.758Z,4.38
2022-08-17T19:16:58.492Z,2.90
2022-08-17T19:22:17.023Z,5.60
2022-08-17T19:27:51.349Z,6.63
2022-08-17T19:33:02.555Z,5.95
2022-08-17T19:38:15.324Z,5.50
2022-08-17T19:43:39.386Z,3.90
2022-08-17T19:49:00.756Z,4.00
2022-08-17T19:54:26.215Z,3.08
2022-08-17T19:59:49.932Z,3.35
2022-08-17T20:04:56.943Z,3.60
2022-08-17T20:10:08.417Z,3.20
2022-08-17T20:15:33.578Z,3.80
2022-08-17T20:20:41.863Z,3.42
2022-08-17T20:25:48.727Z,3.65
2022-08-17T20:30:52.388Z,5.63
2022-08-17T20:36:18.510Z,5.47
2022-08-17T20:41:24.909Z,5.43
2022-08-17T20:46:39.463Z,4.05
2022-08-17T20:52:14.200Z,4.18
2022-08-17T20:57:32.088Z,4.43
2022-08-17T21:02:34.624Z,4.07
2022-08-17T21:07:43.592Z,4.65
2022-08-17T21:12:57.014Z,4.35
2022-08-17T21:18:23.866Z,4.00
2022-08-17T21:24:01.331Z,3.33
2022-08-17T21:29:31.548Z,3.40
2022-08-17T21:34:38.310Z,3.00
2022-08-17T21:39:42.123Z,2.58
2022-08-17T21:44:51.336Z,2.92
2022-08-17T21:49:56.308Z,3.38
2022-08-17T21:55:02.990Z,2.78
2022-08-17T22:00:17.658Z,2.90
2022-08-17T22:05:33.003Z,3.97
2022-08-17T22:10:44.235Z,3.25
2022-08-17T22:15:50.449Z,3.60
2022-08-17T22:21:03.622Z,3.50
2022-08-17T22:26:12.580Z,2.85
2022-08-17T22:31:22.710Z,2.85
2022-08-17T22:36:29.095Z,3.00
2022-08-17T22:41:42.030Z,2.65
2022-08-17T22:46:59.671Z,3.10
2022-08-17T22:52:06.767Z,3.60
2022-08-17T22:57:33.963Z,3.42
2022-08-17T23:02:51.136Z,2.90
2022-08-17T23:07:57.915Z,3.05
2022-08-17T23:13:01.861Z,3.00
2022-08-17T23:18:05.440Z,3.40
2022-08-17T23:23:09.497Z,3.20
2022-08-17T23:28:12.279Z,3.42
2022-08-17T23:33:30.534Z,3.40
2022-08-17T23:38:35.847Z,3.25
2022-08-17T23:43:40.203Z,3.42
2022-08-17T23:48:42.826Z,2.80
2022-08-17T23:53:50.679Z,2.92
2022-08-17T23:58:55.394Z,3.03
